createdAt,value
2022-10-06T00:01:15.649Z,11.60
2022-10-06T00:03:46.429Z,11.58
2022-10-06T00:06:17.272Z,11.50
2022-10-06T00:08:46.386Z,11.50
2022-10-06T00:11:16.267Z,11.50
2022-10-06T00:13:44.792Z,11.50
2022-10-06T00:16:22.431Z,11.42
2022-10-06T00:18:50.824Z,11.40
2022-10-06T00:21:18.945Z,11.40
2022-10-06T00:23:46.809Z,11.40
2022-10-06T00:26:17.225Z,11.40
2022-10-06T00:28:48.902Z,11.32
2022-10-06T00:31:19.653Z,11.30
2022-10-06T00:33:49.688Z,11.30
2022-10-06T00:36:17.780Z,11.30
2022-10-06T00:38:46.018Z,11.30
2022-10-06T00:41:16.301Z,11.30
2022-10-06T00:43:57.333Z,11.30
2022-10-06T00:46:47.494Z,11.30
2022-10-06T00:49:35.107Z,11.30
2022-10-06T00:52:09.079Z,11.30
2022-10-06T00:54:37.526Z,11.24
2022-10-06T00:57:06.581Z,11.20
2022-10-06T00:59:36.300Z,11.20
2022-10-06T01:02:29.465Z,11.22
2022-10-06T01:05:00.807Z,11.22
2022-10-06T01:07:30.581Z,11.24
2022-10-06T01:09:59.461Z,11.22
2022-10-06T01:12:29.495Z,11.20
2022-10-06T01:14:57.406Z,11.20
2022-10-06T01:17:37.775Z,11.20
2022-10-06T01:20:13.907Z,11.20
2022-10-06T01:22:45.581Z,11.20
2022-10-06T01:25:16.563Z,11.20
2022-10-06T01:27:53.897Z,11.20
2022-10-06T01:30:55.765Z,11.20
2022-10-06T01:33:24.738Z,11.20
2022-10-06T01:35:53.693Z,11.20
2022-10-06T01:38:22.456Z,11.20
2022-10-06T01:40:54.306Z,11.20
2022-10-06T01:43:22.179Z,11.20
2022-10-06T01:45:57.877Z,11.20
2022-10-06T01:48:27.138Z,11.20
2022-10-06T01:50:57.140Z,11.20
2022-10-06T01:53:25.197Z,11.20
2022-10-06T01:56:00.798Z,11.20
2022-10-06T01:58:30.467Z,11.20
2022-10-06T02:01:04.251Z,11.20
2022-10-06T02:03:38.550Z,11.20
2022-10-06T02:06:08.013Z,11.20
2022-10-06T02:08:36.630Z,11.20
2022-10-06T02:11:12.131Z,11.20
2022-10-06T02:13:42.843Z,11.12
2022-10-06T02:16:11.879Z,11.10
2022-10-06T02:18:41.487Z,11.10
2022-10-06T02:21:19.551Z,11.10
2022-10-06T02:23:48.096Z,11.10
2022-10-06T02:26:19.760Z,11.10
2022-10-06T02:28:50.013Z,11.10
2022-10-06T02:31:20.738Z,11.10
2022-10-06T02:33:48.754Z,11.10
2022-10-06T02:36:17.782Z,11.10
2022-10-06T02:38:45.685Z,11.10
2022-10-06T02:41:13.447Z,11.10
2022-10-06T02:43:41.388Z,11.10
2022-10-06T02:46:13.214Z,11.10
2022-10-06T02:48:45.857Z,11.10
2022-10-06T02:51:17.499Z,11.10
2022-10-06T02:53:48.207Z,11.10
2022-10-06T02:56:22.982Z,11.10
2022-10-06T02:58:52.908Z,11.18
2022-10-06T03:01:32.254Z,11.20
2022-10-06T03:04:03.330Z,11.20
2022-10-06T03:06:31.831Z,11.20
2022-10-06T03:09:20.133Z,11.20
2022-10-06T03:11:47.911Z,11.20
2022-10-06T03:14:22.124Z,11.20
2022-10-06T03:16:54.763Z,11.20
2022-10-06T03:19:25.807Z,11.22
2022-10-06T03:21:54.094Z,11.24
2022-10-06T03:24:24.157Z,11.24
2022-10-06T03:26:55.113Z,11.30
2022-10-06T03:29:22.949Z,11.30
2022-10-06T03:31:54.131Z,11.30
2022-10-06T03:34:21.994Z,11.30
2022-10-06T03:36:49.889Z,11.30
2022-10-06T03:39:20.073Z,11.30
2022-10-06T03:41:48.069Z,11.30
2022-10-06T03:44:15.931Z,11.28
2022-10-06T03:46:44.177Z,11.28
2022-10-06T03:49:12.011Z,11.28
2022-10-06T03:51:42.062Z,11.22
2022-10-06T03:54:16.939Z,11.20
2022-10-06T03:56:45.838Z,11.20
2022-10-06T03:59:17.324Z,11.20
2022-10-06T04:01:48.682Z,11.20
2022-10-06T04:04:28.655Z,11.20
2022-10-06T04:07:02.034Z,11.20
2022-10-06T04:09:30.002Z,11.16
2022-10-06T04:11:58.054Z,11.20
2022-10-06T04:14:25.959Z,11.20
2022-10-06T04:16:53.915Z,11.20
2022-10-06T04:19:41.570Z,11.20
2022-10-06T04:22:10.646Z,11.20
2022-10-06T04:24:38.450Z,11.20
2022-10-06T04:27:25.120Z,11.28
2022-10-06T04:30:05.926Z,11.30
2022-10-06T04:32:33.907Z,11.30
2022-10-06T04:35:01.789Z,11.30
2022-10-06T04:37:29.944Z,11.40
2022-10-06T04:39:58.545Z,11.40
2022-10-06T04:42:33.992Z,11.40
2022-10-06T04:45:04.971Z,11.50
2022-10-06T04:47:33.320Z,11.50
2022-10-06T04:50:01.160Z,11.60
2022-10-06T04:52:28.918Z,11.60
2022-10-06T04:54:57.329Z,11.70
2022-10-06T04:57:25.116Z,11.70
2022-10-06T05:00:14.945Z,11.78
2022-10-06T05:02:44.553Z,11.80
2022-10-06T05:05:12.429Z,11.80
2022-10-06T05:07:40.319Z,11.88
2022-10-06T05:10:08.921Z,11.90
2022-10-06T05:12:36.912Z,11.90
2022-10-06T05:15:05.412Z,12.00
2022-10-06T05:17:33.172Z,12.00
2022-10-06T05:20:00.925Z,12.10
2022-10-06T05:22:28.780Z,12.10
2022-10-06T05:24:56.612Z,12.20
2022-10-06T05:27:24.883Z,12.20
2022-10-06T05:29:52.703Z,12.30
2022-10-06T05:32:20.471Z,12.30
2022-10-06T05:34:48.464Z,12.40
2022-10-06T05:37:16.708Z,12.50
2022-10-06T05:39:44.738Z,12.50
2022-10-06T05:42:12.484Z,12.60
2022-10-06T05:44:40.461Z,12.66
2022-10-06T05:47:10.843Z,12.72
2022-10-06T05:49:39.280Z,12.80
2022-10-06T05:52:07.396Z,12.90
2022-10-06T05:54:37.088Z,13.00
2022-10-06T05:57:06.154Z,13.08
2022-10-06T05:59:34.675Z,13.14
2022-10-06T06:02:03.770Z,13.20
2022-10-06T06:04:42.556Z,13.30
2022-10-06T06:07:10.760Z,13.40
2022-10-06T06:09:40.118Z,13.50
2022-10-06T06:12:08.268Z,13.58
2022-10-06T06:15:07.550Z,13.60
2022-10-06T06:17:46.087Z,13.70
2022-10-06T06:20:14.014Z,13.80
2022-10-06T06:22:41.787Z,13.90
2022-10-06T06:25:10.038Z,14.00
2022-10-06T06:27:39.166Z,14.02
2022-10-06T06:30:08.852Z,14.10
2022-10-06T06:32:37.827Z,14.20
2022-10-06T06:35:06.840Z,14.30
2022-10-06T06:37:34.729Z,14.40
2022-10-06T06:40:03.028Z,14.50
2022-10-06T06:42:33.197Z,14.60
2022-10-06T06:45:18.900Z,14.70
2022-10-06T06:48:02.236Z,14.82
2022-10-06T06:50:31.678Z,14.90
2022-10-06T06:53:02.533Z,15.00
2022-10-06T06:55:31.298Z,15.00
2022-10-06T06:58:00.230Z,15.10
2022-10-06T07:00:31.372Z,15.10
2022-10-06T07:03:02.118Z,15.20
2022-10-06T07:05:32.566Z,15.22
2022-10-06T07:08:00.539Z,15.30
2022-10-06T07:10:28.336Z,15.30
2022-10-06T07:12:56.111Z,15.30
2022-10-06T07:15:42.742Z,15.40
2022-10-06T07:18:29.305Z,15.40
2022-10-06T07:21:15.707Z,15.50
2022-10-06T07:24:02.300Z,15.50
2022-10-06T07:26:31.294Z,15.50
2022-10-06T07:29:02.431Z,15.58
2022-10-06T07:31:33.588Z,15.56
2022-10-06T07:34:04.937Z,15.54
2022-10-06T07:36:32.827Z,15.60
2022-10-06T07:39:00.718Z,15.60
2022-10-06T07:41:30.236Z,15.70
2022-10-06T07:44:04.596Z,15.70
2022-10-06T07:46:35.704Z,15.70
2022-10-06T07:49:06.916Z,15.70
2022-10-06T07:51:34.753Z,15.60
2022-10-06T07:54:03.528Z,15.60
2022-10-06T07:56:47.568Z,15.60
2022-10-06T07:59:15.351Z,15.60
2022-10-06T08:01:44.484Z,15.60
2022-10-06T08:04:15.348Z,15.60
2022-10-06T08:06:43.140Z,15.70
2022-10-06T08:09:10.935Z,15.70
2022-10-06T08:11:38.797Z,15.72
2022-10-06T08:14:06.584Z,15.80
2022-10-06T08:16:34.435Z,15.88
2022-10-06T08:19:02.283Z,15.90
2022-10-06T08:21:36.522Z,16.00
2022-10-06T08:24:04.454Z,16.10
2022-10-06T08:26:33.313Z,16.20
2022-10-06T08:29:03.443Z,16.30
2022-10-06T08:31:32.707Z,16.34
2022-10-06T08:34:01.460Z,16.40
2022-10-06T08:36:32.042Z,16.50
2022-10-06T08:39:01.424Z,16.50
2022-10-06T08:41:48.652Z,16.60
2022-10-06T08:44:36.305Z,16.60
2022-10-06T08:47:13.768Z,16.70
2022-10-06T08:49:45.953Z,16.70
2022-10-06T08:52:34.605Z,16.80
2022-10-06T08:55:24.154Z,16.90
2022-10-06T08:58:16.432Z,16.94
2022-10-06T09:00:44.445Z,17.00
2022-10-06T09:03:23.822Z,17.10
2022-10-06T09:05:57.005Z,17.30
2022-10-06T09:08:48.827Z,17.40
2022-10-06T09:11:53.408Z,17.60
2022-10-06T09:14:29.844Z,17.80
2022-10-06T09:17:03.039Z,17.90
2022-10-06T09:19:42.728Z,18.08
2022-10-06T09:22:21.723Z,18.28
2022-10-06T09:24:59.055Z,18.40
2022-10-06T09:27:33.461Z,18.40
2022-10-06T09:30:04.661Z,18.50
2022-10-06T09:32:33.363Z,18.60
2022-10-06T09:35:02.643Z,18.60
2022-10-06T09:37:57.116Z,18.60
2022-10-06T09:40:38.898Z,18.60
2022-10-06T09:43:23.854Z,18.70
2022-10-06T09:45:54.791Z,18.70
2022-10-06T09:48:25.900Z,18.70
2022-10-06T09:51:17.644Z,18.70
2022-10-06T09:54:11.109Z,18.70
2022-10-06T09:56:44.844Z,18.70
2022-10-06T09:59:29.706Z,18.78
2022-10-06T10:01:59.907Z,18.90
2022-10-06T10:04:35.419Z,19.00
2022-10-06T10:07:27.852Z,19.10
2022-10-06T10:10:22.719Z,19.10
2022-10-06T10:13:00.589Z,19.20
2022-10-06T10:15:34.402Z,19.22
2022-10-06T10:18:12.767Z,19.20
2022-10-06T10:20:55.834Z,19.20
2022-10-06T10:23:30.857Z,19.10
2022-10-06T10:26:27.073Z,19.10
2022-10-06T10:29:10.483Z,19.20
2022-10-06T10:32:04.193Z,19.40
2022-10-06T10:35:01.859Z,19.50
2022-10-06T10:37:43.041Z,19.66
2022-10-06T10:40:40.616Z,19.76
2022-10-06T10:43:13.849Z,19.80
2022-10-06T10:45:52.340Z,19.80
2022-10-06T10:48:37.313Z,19.80
2022-10-06T10:51:24.010Z,19.80
2022-10-06T10:54:05.230Z,19.70
2022-10-06T10:56:34.078Z,19.60
2022-10-06T10:59:39.266Z,19.58
2022-10-06T11:02:20.853Z,19.50
2022-10-06T11:05:03.223Z,19.54
2022-10-06T11:07:57.167Z,19.52
2022-10-06T11:10:34.024Z,19.50
2022-10-06T11:13:22.308Z,19.50
2022-10-06T11:15:57.915Z,19.40
2022-10-06T11:18:48.104Z,19.40
2022-10-06T11:21:36.502Z,19.34
2022-10-06T11:24:23.689Z,19.40
2022-10-06T11:27:43.352Z,19.40
2022-10-06T11:30:26.390Z,19.50
2022-10-06T11:33:25.599Z,19.50
2022-10-06T11:35:53.815Z,19.50
2022-10-06T11:38:45.074Z,19.60
2022-10-06T11:41:26.778Z,19.50
2022-10-06T11:44:26.376Z,19.60
2022-10-06T11:47:06.233Z,19.68
2022-10-06T11:49:58.500Z,19.80
2022-10-06T11:52:26.152Z,19.90
2022-10-06T11:54:56.791Z,19.90
2022-10-06T11:57:30.638Z,19.90
2022-10-06T12:00:04.925Z,19.90
2022-10-06T12:02:42.186Z,19.82
2022-10-06T12:05:28.684Z,19.82
2022-10-06T12:07:57.860Z,19.80
2022-10-06T12:10:28.733Z,19.80
2022-10-06T12:19:49.280Z,20.28
2022-10-06T12:22:55.928Z,20.38
2022-10-06T12:25:54.098Z,20.38
2022-10-06T12:28:39.366Z,20.40
2022-10-06T12:31:35.519Z,20.50
2022-10-06T12:34:04.035Z,20.70
2022-10-06T12:36:32.206Z,20.80
2022-10-06T12:39:20.269Z,20.80
2022-10-06T12:42:17.961Z,20.60
2022-10-06T12:44:53.023Z,20.54
2022-10-06T12:47:47.461Z,20.50
2022-10-06T12:50:25.476Z,20.40
2022-10-06T12:52:57.480Z,20.30
2022-10-06T12:56:02.077Z,20.22
2022-10-06T12:58:33.928Z,20.20
2022-10-06T13:01:09.018Z,20.10
2022-10-06T13:03:37.515Z,20.00
2022-10-06T13:06:09.502Z,19.88
2022-10-06T13:08:39.964Z,19.80
2022-10-06T13:11:34.268Z,19.70
2022-10-06T13:14:17.034Z,19.60
2022-10-06T13:16:48.554Z,19.56
2022-10-06T13:19:29.068Z,19.60
2022-10-06T13:21:57.313Z,19.72
2022-10-06T13:24:26.933Z,20.00
2022-10-06T13:26:54.904Z,20.40
2022-10-06T13:29:25.735Z,20.70
2022-10-06T13:31:55.869Z,21.10
2022-10-06T13:34:27.093Z,21.46
2022-10-06T13:36:55.416Z,21.70
2022-10-06T13:39:26.950Z,21.90
2022-10-06T13:42:10.399Z,21.90
2022-10-06T13:44:54.186Z,21.80
2022-10-06T13:47:25.482Z,21.66
2022-10-06T13:50:02.055Z,21.50
2022-10-06T13:52:48.108Z,21.70
2022-10-06T13:55:22.361Z,21.80
2022-10-06T13:58:12.491Z,21.82
2022-10-06T14:00:48.718Z,21.90
2022-10-06T14:06:17.752Z,21.90
2022-10-06T14:08:55.104Z,22.00
2022-10-06T14:11:27.314Z,22.00
2022-10-06T14:14:04.787Z,22.00
2022-10-06T14:16:33.053Z,22.00
2022-10-06T14:19:04.787Z,22.00
2022-10-06T14:21:44.985Z,21.80
2022-10-06T14:24:16.115Z,21.70
2022-10-06T14:26:46.303Z,21.50
2022-10-06T14:29:14.325Z,21.40
2022-10-06T14:31:44.120Z,21.20
2022-10-06T14:34:15.377Z,21.00
2022-10-06T14:36:47.338Z,20.88
2022-10-06T14:39:15.992Z,20.70
2022-10-06T14:41:45.409Z,20.58
2022-10-06T14:44:15.592Z,20.50
2022-10-06T14:46:48.311Z,20.36
2022-10-06T14:49:16.861Z,20.20
2022-10-06T14:51:46.007Z,20.10
2022-10-06T14:54:14.152Z,20.10
2022-10-06T14:56:42.744Z,20.00
2022-10-06T14:59:16.707Z,19.90
2022-10-06T15:01:48.265Z,19.78
2022-10-06T15:04:19.911Z,19.70
2022-10-06T15:07:06.339Z,19.60
2022-10-06T15:09:35.625Z,19.48
2022-10-06T15:12:03.939Z,19.40
2022-10-06T15:14:32.134Z,19.32
2022-10-06T15:17:00.291Z,19.30
2022-10-06T15:19:28.599Z,19.16
2022-10-06T15:21:56.685Z,19.10
2022-10-06T15:24:25.397Z,19.02
2022-10-06T15:27:11.610Z,18.94
2022-10-06T15:29:39.436Z,18.88
2022-10-06T15:32:08.282Z,18.76
2022-10-06T15:34:37.725Z,18.70
2022-10-06T15:37:06.514Z,18.60
2022-10-06T15:39:37.927Z,18.60
2022-10-06T15:42:06.844Z,18.50
2022-10-06T15:44:35.157Z,18.40
2022-10-06T15:47:05.841Z,18.40
2022-10-06T15:49:38.225Z,18.30
2022-10-06T15:52:07.002Z,18.20
2022-10-06T15:54:38.235Z,18.10
2022-10-06T15:57:09.300Z,18.08
2022-10-06T15:59:40.097Z,18.00
2022-10-06T16:02:14.885Z,17.90
2022-10-06T16:04:44.153Z,17.80
2022-10-06T16:07:18.383Z,17.72
2022-10-06T16:09:49.195Z,17.68
2022-10-06T16:12:21.475Z,17.60
2022-10-06T16:14:49.681Z,17.50
2022-10-06T16:17:18.223Z,17.48
2022-10-06T16:19:47.057Z,17.40
2022-10-06T16:22:18.679Z,17.30
2022-10-06T16:24:46.546Z,17.30
2022-10-06T16:27:15.934Z,17.20
2022-10-06T16:29:43.763Z,17.18
2022-10-06T16:32:11.604Z,17.10
2022-10-06T16:34:39.393Z,17.00
2022-10-06T16:37:07.173Z,16.90
2022-10-06T16:39:35.066Z,16.80
2022-10-06T16:42:02.895Z,16.80
2022-10-06T16:44:30.791Z,16.70
2022-10-06T16:46:58.605Z,16.70
2022-10-06T16:49:28.190Z,16.60
2022-10-06T16:51:56.003Z,16.58
2022-10-06T16:54:23.898Z,16.50
2022-10-06T16:56:54.181Z,16.50
2022-10-06T16:59:26.542Z,16.40
2022-10-06T17:01:54.440Z,16.40
2022-10-06T17:04:24.893Z,16.30
2022-10-06T17:06:57.437Z,16.26
2022-10-06T17:09:28.518Z,16.20
2022-10-06T17:12:02.323Z,16.10
2022-10-06T17:14:32.325Z,16.10
2022-10-06T17:17:00.928Z,16.08
2022-10-06T17:19:30.205Z,16.00
2022-10-06T17:21:59.781Z,16.00
2022-10-06T17:24:29.700Z,15.90
2022-10-06T17:26:58.365Z,15.90
2022-10-06T17:29:27.239Z,15.82
2022-10-06T17:32:00.265Z,15.80
2022-10-06T17:34:33.429Z,15.80
2022-10-06T17:37:40.429Z,15.70
2022-10-06T17:40:09.151Z,15.70
2022-10-06T17:42:37.684Z,15.64
2022-10-06T17:45:06.225Z,15.60
2022-10-06T17:47:33.969Z,15.60
2022-10-06T17:50:01.757Z,15.56
2022-10-06T17:52:30.431Z,15.50
2022-10-06T17:54:58.256Z,15.48
2022-10-06T17:57:26.019Z,15.40
2022-10-06T17:59:53.699Z,15.40
2022-10-06T18:02:21.646Z,15.30
2022-10-06T18:04:49.947Z,15.30
2022-10-06T18:07:17.676Z,15.20
2022-10-06T18:10:05.342Z,15.20
2022-10-06T18:12:36.172Z,15.10
2022-10-06T18:15:04.493Z,15.10
2022-10-06T18:17:32.179Z,15.08
2022-10-06T18:20:00.439Z,15.00
2022-10-06T18:22:28.259Z,15.00
2022-10-06T18:24:59.200Z,15.00
2022-10-06T18:27:27.543Z,14.94
2022-10-06T18:29:55.348Z,14.90
2022-10-06T18:38:00.321Z,14.80
2022-10-06T18:40:28.387Z,14.70
2022-10-06T18:42:56.127Z,14.70
2022-10-06T18:45:42.750Z,14.60
2022-10-06T18:48:29.224Z,14.60
2022-10-06T18:51:01.872Z,14.60
2022-10-06T18:53:32.664Z,14.54
2022-10-06T18:56:00.443Z,14.50
2022-10-06T18:58:28.212Z,14.50
2022-10-06T19:00:56.033Z,14.42
2022-10-06T19:03:23.830Z,14.40
2022-10-06T19:05:52.802Z,14.40
2022-10-06T19:08:20.603Z,14.30
2022-10-06T19:11:06.766Z,14.20
2022-10-06T19:13:34.650Z,14.20
2022-10-06T19:16:02.866Z,14.10
2022-10-06T19:18:39.570Z,14.00
2022-10-06T19:21:09.862Z,14.00
2022-10-06T19:23:38.839Z,13.90
2022-10-06T19:26:11.117Z,13.80
2022-10-06T19:28:39.565Z,13.78
2022-10-06T19:31:10.470Z,13.70
2022-10-06T19:33:39.439Z,13.60
2022-10-06T19:36:08.368Z,13.52
2022-10-06T19:38:38.698Z,13.50
2022-10-06T19:41:25.674Z,13.40
2022-10-06T19:43:53.427Z,13.32
2022-10-06T19:46:21.333Z,13.30
2022-10-06T19:48:56.801Z,13.20
2022-10-06T19:51:25.295Z,13.16
2022-10-06T19:53:53.086Z,13.10
2022-10-06T19:56:25.435Z,13.00
2022-10-06T19:58:53.746Z,13.00
2022-10-06T20:01:21.551Z,13.00
2022-10-06T20:03:49.483Z,12.98
2022-10-06T20:06:17.247Z,12.90
2022-10-06T20:08:45.126Z,12.90
2022-10-06T20:11:18.413Z,12.90
2022-10-06T20:13:46.838Z,12.80
2022-10-06T20:16:18.717Z,12.78
2022-10-06T20:18:50.523Z,12.70
2022-10-06T20:21:25.741Z,12.64
2022-10-06T20:23:56.509Z,12.60
2022-10-06T20:26:32.135Z,12.58
2022-10-06T20:29:02.255Z,12.50
2022-10-06T20:31:37.449Z,12.50
2022-10-06T20:34:08.301Z,12.40
2022-10-06T20:36:38.115Z,12.40
2022-10-06T20:39:27.907Z,12.38
2022-10-06T20:41:56.206Z,12.30
2022-10-06T20:44:24.062Z,12.30
2022-10-06T20:46:54.396Z,12.20
2022-10-06T20:49:22.205Z,12.20
2022-10-06T20:51:51.860Z,12.20
2022-10-06T20:54:26.555Z,12.10
2022-10-06T20:56:55.679Z,12.10
2022-10-06T20:59:24.942Z,12.10
2022-10-06T21:01:53.024Z,12.04
2022-10-06T21:04:21.994Z,12.00
2022-10-06T21:06:50.982Z,12.00
2022-10-06T21:09:19.668Z,11.92
2022-10-06T21:11:48.966Z,11.90
2022-10-06T21:14:17.684Z,11.86
2022-10-06T21:16:48.178Z,11.86
2022-10-06T21:19:19.409Z,11.84
2022-10-06T21:21:53.874Z,11.80
2022-10-06T21:24:21.710Z,11.80
2022-10-06T21:26:50.511Z,11.80
2022-10-06T21:29:18.363Z,11.70
2022-10-06T21:31:47.039Z,11.70
2022-10-06T21:34:14.885Z,11.60
2022-10-06T21:36:44.248Z,11.60
2022-10-06T21:39:13.275Z,11.50
2022-10-06T21:41:42.405Z,11.40
2022-10-06T21:44:16.357Z,11.40
2022-10-06T21:46:53.414Z,11.30
2022-10-06T21:49:24.300Z,11.30
2022-10-06T21:51:55.135Z,11.20
2022-10-06T21:54:24.119Z,11.10
2022-10-06T21:56:52.497Z,11.08
2022-10-06T21:59:20.492Z,11.00
2022-10-06T22:01:50.453Z,10.98
2022-10-06T22:04:18.704Z,10.90
2022-10-06T22:06:50.222Z,10.90
2022-10-06T22:09:20.690Z,10.90
2022-10-06T22:11:49.731Z,10.80
2022-10-06T22:14:19.541Z,10.80
2022-10-06T22:16:47.689Z,10.70
2022-10-06T22:19:17.926Z,10.70
2022-10-06T22:21:48.626Z,10.70
2022-10-06T22:24:20.622Z,10.60
2022-10-06T22:26:49.344Z,10.60
2022-10-06T22:29:19.677Z,10.60
2022-10-06T22:31:48.929Z,10.50
2022-10-06T22:34:20.444Z,10.50
2022-10-06T22:36:48.667Z,10.50
2022-10-06T22:39:16.862Z,10.50
2022-10-06T22:41:45.478Z,10.50
2022-10-06T22:44:13.410Z,10.40
2022-10-06T22:46:41.309Z,10.40
2022-10-06T22:49:09.178Z,10.40
2022-10-06T22:51:36.987Z,10.34
2022-10-06T22:54:05.218Z,10.30
2022-10-06T22:56:34.452Z,10.30
2022-10-06T22:59:02.482Z,10.30
2022-10-06T23:01:30.832Z,10.30
2022-10-06T23:03:59.734Z,10.30
2022-10-06T23:06:31.081Z,10.22
2022-10-06T23:08:59.430Z,10.20
2022-10-06T23:11:27.521Z,10.20
2022-10-06T23:13:55.559Z,10.20
2022-10-06T23:16:23.671Z,10.20
2022-10-06T23:18:51.773Z,10.20
2022-10-06T23:21:27.350Z,10.18
2022-10-06T23:23:59.271Z,10.10
2022-10-06T23:26:27.899Z,10.10
2022-10-06T23:28:57.740Z,10.10
2022-10-06T23:31:26.581Z,10.10
2022-10-06T23:33:55.316Z,10.10
2022-10-06T23:36:23.072Z,10.10
2022-10-06T23:38:50.959Z,10.10
2022-10-06T23:41:19.115Z,10.10
2022-10-06T23:43:47.180Z,10.00
2022-10-06T23:46:15.221Z,10.00
2022-10-06T23:48:43.384Z,10.00
2022-10-06T23:51:15.650Z,10.00
2022-10-06T23:53:43.978Z,9.90
2022-10-06T23:56:12.654Z,9.90
2022-10-06T23:58:41.922Z,9.90
